Time;durP1;ratioP1;P1;durP2;ratioP2;P2;SDS_P1;SDS_P2;PMS_P1;PMS_P2;Temp;Humidity;BMP_temperature;BMP_pressure;BME280_temperature;BME280_humidity;BME280_pressure;Samples;Min_cycle;Max_cycle;Signal;HPM_P1;HPM_P2
2022/04/09 00:02:07;;;;;;;9.23;2.22;;;5.20;99.90;;;;;;5010274;28;20499;-67
2022/04/09 00:04:33;;;;;;;7.03;2.00;;;5.10;99.90;;;;;;5008447;28;20040;-67
2022/04/09 00:06:58;;;;;;;11.23;2.30;;;5.10;99.90;;;;;;5009772;28;20471;-67
2022/04/09 00:09:25;;;;;;;5.55;2.10;;;5.10;99.90;;;;;;5010525;28;20038;-67
2022/04/09 00:11:51;;;;;;;9.27;2.58;;;5.10;99.90;;;;;;4992425;28;20052;-67
2022/04/09 00:14:17;;;;;;;13.25;3.03;;;5.10;99.90;;;;;;5008377;28;20054;-67
2022/04/09 00:16:43;;;;;;;9.38;2.60;;;5.10;99.90;;;;;;5008565;28;20048;-67
2022/04/09 00:19:09;;;;;;;7.38;2.65;;;5.20;99.90;;;;;;5008528;28;20405;-67
2022/04/09 00:21:36;;;;;;;9.15;2.65;;;5.40;99.90;;;;;;5009156;28;20121;-67
2022/04/09 00:24:01;;;;;;;8.90;2.40;;;5.10;99.90;;;;;;5007688;28;20062;-67
2022/04/09 00:26:27;;;;;;;11.57;2.97;;;5.10;99.90;;;;;;4991427;28;20517;-67
2022/04/09 00:28:52;;;;;;;11.43;2.92;;;5.10;99.90;;;;;;5007232;28;20478;-67
2022/04/09 00:31:18;;;;;;;11.73;2.65;;;5.10;99.90;;;;;;4990507;28;20367;-67
2022/04/09 00:33:44;;;;;;;11.25;2.35;;;5.00;99.90;;;;;;5009114;28;20339;-66
2022/04/09 00:36:09;;;;;;;10.80;2.33;;;5.00;99.90;;;;;;5008302;28;20049;-68
2022/04/09 00:38:35;;;;;;;11.10;2.58;;;4.90;99.90;;;;;;4991057;28;20054;-67
2022/04/09 00:41:01;;;;;;;8.70;3.05;;;4.90;99.90;;;;;;5008677;28;20038;-68
2022/04/09 00:43:26;;;;;;;12.15;2.72;;;4.90;99.90;;;;;;5008020;28;20473;-68
2022/04/09 00:45:52;;;;;;;8.73;2.55;;;4.90;99.90;;;;;;5007765;28;20045;-68
2022/04/09 00:48:20;;;;;;;12.77;2.53;;;4.90;99.90;;;;;;5010626;28;20038;-68
2022/04/09 00:50:47;;;;;;;7.15;2.53;;;5.00;99.90;;;;;;5009454;28;20069;-67
2022/04/09 00:53:15;;;;;;;12.05;2.30;;;5.00;99.90;;;;;;4990625;28;20046;-67
2022/04/09 00:58:28;;;;;;;11.48;2.55;;;4.90;99.90;;;;;;4993062;28;20141;-67
2022/04/09 01:00:54;;;;;;;10.98;2.50;;;4.90;99.90;;;;;;4989878;28;20049;-67
2022/04/09 01:03:20;;;;;;;12.82;2.85;;;4.80;99.90;;;;;;5008990;28;20049;-67
2022/04/09 01:05:48;;;;;;;10.30;2.40;;;4.70;99.90;;;;;;5007770;28;20526;-67
2022/04/09 01:08:14;;;;;;;10.45;2.20;;;4.70;99.90;;;;;;5008427;28;20052;-66
2022/04/09 01:10:40;;;;;;;8.45;2.28;;;4.70;99.90;;;;;;4990593;28;20045;-66
2022/04/09 01:13:06;;;;;;;14.60;2.53;;;4.70;99.90;;;;;;5008345;28;20050;-67
2022/04/09 01:15:32;;;;;;;7.45;2.17;;;4.60;99.90;;;;;;4990754;28;20041;-67
2022/04/09 01:18:00;;;;;;;9.20;2.10;;;4.60;99.90;;;;;;4990835;28;20052;-67
2022/04/09 01:20:26;;;;;;;7.78;2.30;;;4.50;99.90;;;;;;5005520;28;20041;-67
2022/04/09 01:22:52;;;;;;;7.90;2.15;;;4.50;99.90;;;;;;4997600;28;20038;-67
2022/04/09 01:25:18;;;;;;;8.15;2.10;;;4.60;99.90;;;;;;5007976;28;20073;-67
2022/04/09 01:27:46;;;;;;;6.30;2.03;;;4.60;99.90;;;;;;5007074;28;20128;-66
2022/04/09 01:30:13;;;;;;;10.70;2.40;;;4.60;99.90;;;;;;4989256;28;20128;-67
2022/04/09 01:32:39;;;;;;;7.18;2.10;;;4.70;99.90;;;;;;5008795;28;20060;-66
2022/04/09 01:35:05;;;;;;;7.80;2.45;;;4.60;99.90;;;;;;5006556;28;20038;-67
2022/04/09 01:37:32;;;;;;;10.20;2.35;;;4.60;99.90;;;;;;5008719;28;20509;-67
2022/04/09 01:39:57;;;;;;;13.07;2.22;;;4.60;99.90;;;;;;5009973;28;20037;-67
2022/04/09 01:42:26;;;;;;;11.50;2.58;;;4.70;99.90;;;;;;4989848;28;20077;-67
2022/04/09 01:44:52;;;;;;;7.10;2.60;;;4.60;99.90;;;;;;5007374;28;20053;-67
2022/04/09 01:47:17;;;;;;;9.35;2.00;;;4.60;99.90;;;;;;5008825;28;20089;-67
2022/04/09 01:49:43;;;;;;;9.20;2.50;;;4.60;99.90;;;;;;4990187;28;20046;-67
2022/04/09 01:52:09;;;;;;;11.23;2.20;;;4.60;99.90;;;;;;5008272;28;20053;-66
2022/04/09 01:54:35;;;;;;;7.38;2.22;;;4.60;99.90;;;;;;5007817;28;20441;-67
2022/04/09 01:57:00;;;;;;;10.23;2.47;;;4.70;99.90;;;;;;5006780;28;20136;-67
2022/04/09 01:59:26;;;;;;;7.80;2.10;;;4.80;99.90;;;;;;5007324;28;20078;-67
2022/04/09 02:01:51;;;;;;;12.57;2.22;;;4.80;99.90;;;;;;4991027;28;20088;-67
2022/04/09 02:04:17;;;;;;;7.75;2.33;;;4.70;99.90;;;;;;5009526;28;20394;-66
2022/04/09 02:06:43;;;;;;;11.13;2.58;;;4.70;99.90;;;;;;5008685;28;20042;-66
2022/04/09 02:09:12;;;;;;;9.10;2.20;;;5.90;99.90;;;;;;5008218;28;20052;-66
2022/04/09 02:11:41;;;;;;;8.88;2.50;;;4.60;99.90;;;;;;4987923;28;20081;-66
2022/04/09 02:14:11;;;;;;;13.27;3.10;;;4.60;99.90;;;;;;5006999;28;20038;-66
2022/04/09 02:16:41;;;;;;;9.00;2.70;;;4.50;99.90;;;;;;4989972;28;20092;-67
2022/04/09 02:19:08;;;;;;;8.60;2.03;;;4.40;99.90;;;;;;4990506;28;20058;-66
2022/04/09 02:21:34;;;;;;;8.13;2.20;;;4.40;99.90;;;;;;5008224;28;20552;-67
2022/04/09 02:23:59;;;;;;;11.57;2.58;;;4.40;99.90;;;;;;5006747;28;20058;-67
2022/04/09 02:26:25;;;;;;;8.75;2.45;;;4.40;99.90;;;;;;5007542;28;20287;-67
2022/04/09 02:28:52;;;;;;;7.22;2.08;;;4.40;99.90;;;;;;5006665;28;20045;-67
2022/04/09 02:31:18;;;;;;;9.05;2.20;;;4.30;99.90;;;;;;5007363;28;20454;-67
2022/04/09 02:33:47;;;;;;;11.00;2.20;;;4.20;99.90;;;;;;5007699;28;20070;-67
2022/04/09 02:36:14;;;;;;;8.30;2.00;;;4.20;99.90;;;;;;5008373;28;20121;-67
2022/04/09 02:38:39;;;;;;;11.52;2.03;;;4.30;99.90;;;;;;5009796;28;20049;-67
2022/04/09 02:41:06;;;;;;;9.43;2.03;;;4.40;99.90;;;;;;5010092;28;20073;-67
2022/04/09 02:43:32;;;;;;;9.40;2.25;;;4.50;99.90;;;;;;5007158;28;20050;-67
2022/04/09 02:45:58;;;;;;;7.03;1.70;;;4.50;99.90;;;;;;4989805;28;20524;-67
2022/04/09 02:48:24;;;;;;;6.57;1.98;;;4.60;99.90;;;;;;4992889;28;20046;-67
2022/04/09 02:50:49;;;;;;;4.95;1.77;;;4.50;99.90;;;;;;5011461;28;20053;-67
2022/04/09 02:53:15;;;;;;;5.93;1.90;;;4.50;99.90;;;;;;5010597;28;20414;-67
2022/04/09 02:55:41;;;;;;;9.27;2.00;;;4.50;99.90;;;;;;5010425;28;20061;-67
2022/04/09 02:58:06;;;;;;;7.22;1.95;;;4.40;99.90;;;;;;5010498;28;20064;-67
2022/04/09 03:00:32;;;;;;;4.03;1.80;;;4.50;99.90;;;;;;5009788;28;20159;-67
2022/04/09 03:02:58;;;;;;;7.53;2.33;;;4.40;99.90;;;;;;4993663;28;20403;-67
2022/04/09 03:05:24;;;;;;;5.70;2.22;;;4.40;99.90;;;;;;5011031;28;20053;-67
2022/04/09 03:07:49;;;;;;;4.57;2.00;;;4.40;99.90;;;;;;5009929;28;20494;-67
2022/04/09 03:10:15;;;;;;;8.63;1.98;;;4.50;99.90;;;;;;5010871;28;20117;-67
2022/04/09 03:12:47;;;;;;;6.13;2.20;;;4.50;99.90;;;;;;5010018;28;20116;-67
2022/04/09 03:15:14;;;;;;;11.57;1.98;;;4.60;99.90;;;;;;5009867;28;20041;-66
2022/04/09 03:17:41;;;;;;;10.68;2.15;;;4.70;99.90;;;;;;5010410;28;20053;-66
2022/04/09 03:20:07;;;;;;;9.13;2.40;;;4.70;99.90;;;;;;5010011;28;20081;-66
2022/04/09 03:22:33;;;;;;;9.23;2.10;;;4.70;99.90;;;;;;5010376;28;20410;-67
2022/04/09 03:24:59;;;;;;;8.75;2.25;;;4.70;99.90;;;;;;5009924;28;20066;-67
2022/04/09 03:27:28;;;;;;;7.40;2.53;;;4.60;99.90;;;;;;5009637;28;20050;-67
2022/04/09 03:29:54;;;;;;;8.75;1.98;;;4.60;99.90;;;;;;5009295;28;20089;-66
2022/04/09 03:32:20;;;;;;;7.07;2.28;;;4.60;99.90;;;;;;4998766;28;20085;-66
2022/04/09 03:34:46;;;;;;;8.95;1.98;;;4.70;99.90;;;;;;4989377;28;20046;-67
2022/04/09 03:37:12;;;;;;;5.07;1.67;;;4.60;99.90;;;;;;4999453;28;20520;-68
2022/04/09 03:39:38;;;;;;;7.50;2.40;;;4.60;99.90;;;;;;5010472;28;20133;-67
2022/04/09 03:42:05;;;;;;;7.82;2.40;;;4.50;99.90;;;;;;5009700;28;20046;-66
2022/04/09 03:44:30;;;;;;;8.32;2.03;;;4.40;99.90;;;;;;4992130;28;20100;-67
2022/04/09 03:46:58;;;;;;;8.65;2.20;;;4.40;99.90;;;;;;5009754;28;20117;-67
2022/04/09 03:49:24;;;;;;;7.70;2.40;;;4.40;99.90;;;;;;5009921;28;20147;-67
2022/04/09 03:51:49;;;;;;;7.63;2.20;;;4.40;99.90;;;;;;5010240;28;20058;-67
2022/04/09 03:54:15;;;;;;;8.88;2.17;;;4.40;99.90;;;;;;5011066;28;20049;-67
2022/04/09 03:56:42;;;;;;;10.00;2.20;;;4.40;99.90;;;;;;4992792;28;20391;-67
2022/04/09 03:59:07;;;;;;;6.60;2.10;;;4.40;99.90;;;;;;5007321;28;20192;-67
2022/04/09 04:01:33;;;;;;;7.47;2.10;;;4.40;99.90;;;;;;4992384;28;20524;-67
2022/04/09 04:03:59;;;;;;;9.07;1.90;;;4.40;99.90;;;;;;5009009;28;20056;-67
2022/04/09 04:06:24;;;;;;;8.80;2.13;;;4.30;99.90;;;;;;5010067;28;20046;-66
2022/04/09 04:08:51;;;;;;;8.07;2.00;;;4.30;99.90;;;;;;5009413;28;20054;-66
2022/04/09 04:11:17;;;;;;;8.20;2.33;;;4.20;99.90;;;;;;4991040;28;20052;-67
2022/04/09 04:13:42;;;;;;;6.43;2.22;;;4.20;99.90;;;;;;4990845;28;20038;-67
2022/04/09 04:16:09;;;;;;;11.50;2.40;;;4.20;99.90;;;;;;5009423;28;20353;-66
2022/04/09 04:18:36;;;;;;;9.77;2.33;;;4.10;99.90;;;;;;4991449;28;20487;-66
2022/04/09 04:21:02;;;;;;;10.25;2.53;;;4.20;99.90;;;;;;4984063;28;20046;-66
2022/04/09 04:23:28;;;;;;;7.97;2.42;;;4.10;99.90;;;;;;4990093;28;20096;-67
2022/04/09 04:25:53;;;;;;;11.25;3.08;;;4.10;99.90;;;;;;5010576;28;20072;-67
2022/04/09 04:28:19;;;;;;;7.65;2.00;;;4.10;99.90;;;;;;5008191;28;20054;-66
2022/04/09 04:30:45;;;;;;;8.88;2.35;;;4.10;99.90;;;;;;4991106;28;20048;-66
2022/04/09 04:33:10;;;;;;;7.72;2.20;;;4.10;99.90;;;;;;5009686;28;20049;-66
2022/04/09 04:35:36;;;;;;;11.15;2.50;;;5.20;99.90;;;;;;5008812;28;20606;-67
2022/04/09 04:38:01;;;;;;;12.88;2.08;;;4.10;99.90;;;;;;5009098;28;20144;-66
2022/04/09 04:40:27;;;;;;;13.65;3.28;;;4.10;99.90;;;;;;5008874;28;20068;-66
2022/04/09 04:42:53;;;;;;;7.72;2.00;;;4.10;99.90;;;;;;5008440;28;20482;-67
2022/04/09 04:45:18;;;;;;;7.47;2.10;;;4.10;99.90;;;;;;4991933;28;20041;-67
2022/04/09 04:47:46;;;;;;;7.18;2.22;;;4.10;99.90;;;;;;5009838;28;20058;-66
2022/04/09 04:50:13;;;;;;;7.90;1.95;;;4.10;99.90;;;;;;5009122;28;20053;-66
2022/04/09 04:52:38;;;;;;;11.10;2.10;;;4.00;99.90;;;;;;4988607;28;20105;-66
2022/04/09 04:55:04;;;;;;;9.25;2.05;;;4.10;99.90;;;;;;4988926;28;20479;-67
2022/04/09 04:57:40;;;;;;;7.57;2.42;;;4.00;99.90;;;;;;4988741;28;20456;-66
2022/04/09 05:00:06;;;;;;;7.82;2.15;;;5.00;99.90;;;;;;4988037;28;20078;-67
2022/04/09 05:02:31;;;;;;;10.15;2.15;;;4.10;99.90;;;;;;4989405;28;20085;-67
2022/04/09 05:04:57;;;;;;;8.18;2.00;;;4.00;99.90;;;;;;4988846;28;20533;-67
2022/04/09 05:07:23;;;;;;;6.95;2.10;;;4.00;99.90;;;;;;5008476;28;20046;-67
2022/04/09 05:09:48;;;;;;;9.73;2.20;;;4.00;99.90;;;;;;4991961;28;20648;-68
2022/04/09 05:12:14;;;;;;;9.57;1.98;;;4.00;99.90;;;;;;5007986;28;20064;-67
2022/04/09 05:14:41;;;;;;;14.27;2.70;;;4.00;99.90;;;;;;5008040;28;20092;-67
2022/04/09 05:17:07;;;;;;;10.23;2.25;;;4.00;99.90;;;;;;5008448;28;20100;-67
2022/04/09 05:19:32;;;;;;;9.63;2.22;;;4.00;99.90;;;;;;5008381;28;20562;-67
2022/04/09 05:21:58;;;;;;;10.65;2.53;;;4.10;99.90;;;;;;5008033;28;20479;-66
2022/04/09 05:24:24;;;;;;;8.95;2.17;;;4.20;99.90;;;;;;5008749;28;20364;-66
2022/04/09 05:26:49;;;;;;;12.45;2.30;;;5.30;99.90;;;;;;4990204;28;20045;-67
2022/04/09 05:29:15;;;;;;;11.43;2.10;;;4.50;99.90;;;;;;4991050;28;20042;-67
2022/04/09 05:31:43;;;;;;;10.13;2.33;;;4.60;99.90;;;;;;5008561;28;20096;-67
2022/04/09 05:34:08;;;;;;;8.80;1.85;;;4.70;99.90;;;;;;5007670;28;20554;-67
2022/04/09 05:36:34;;;;;;;8.05;2.17;;;4.60;99.90;;;;;;4989750;28;20069;-67
2022/04/09 05:38:59;;;;;;;9.02;2.22;;;4.60;99.90;;;;;;4990472;28;20459;-67
2022/04/09 05:41:25;;;;;;;11.52;2.55;;;4.60;99.90;;;;;;5007330;28;20034;-67
2022/04/09 05:43:51;;;;;;;10.95;2.47;;;4.70;99.90;;;;;;5006702;28;20056;-67
2022/04/09 05:46:16;;;;;;;10.30;2.42;;;4.70;99.90;;;;;;5008326;28;20433;-66
2022/04/09 05:48:42;;;;;;;11.35;3.13;;;4.60;99.90;;;;;;5007668;28;20516;-67
2022/04/09 05:51:08;;;;;;;9.98;3.35;;;4.80;99.90;;;;;;5008483;28;20577;-67
2022/04/09 05:53:33;;;;;;;8.70;2.17;;;4.90;99.90;;;;;;4974540;28;20065;-67
2022/04/09 05:55:59;;;;;;;7.90;2.05;;;5.60;99.90;;;;;;5007252;28;20057;-67
2022/04/09 05:58:24;;;;;;;8.77;1.95;;;4.90;99.90;;;;;;5008110;28;20129;-67
2022/04/09 06:00:50;;;;;;;10.18;2.00;;;4.90;99.90;;;;;;4990127;28;20448;-67
2022/04/09 06:03:17;;;;;;;8.13;2.10;;;4.70;99.90;;;;;;4988460;28;20085;-67
2022/04/09 06:05:43;;;;;;;8.68;2.05;;;4.80;99.90;;;;;;5005795;28;20479;-68
2022/04/09 06:08:09;;;;;;;7.90;1.95;;;4.80;99.90;;;;;;4974332;28;20050;-67
2022/04/09 06:10:35;;;;;;;6.18;2.20;;;4.80;99.90;;;;;;4988906;28;20134;-67
2022/04/09 06:13:00;;;;;;;6.28;2.42;;;4.80;99.90;;;;;;5008904;28;20393;-68
2022/04/09 06:15:26;;;;;;;6.78;2.28;;;6.10;99.90;;;;;;4992336;28;20049;-67
2022/04/09 06:17:52;;;;;;;9.80;2.30;;;4.90;99.90;;;;;;5009797;28;20517;-67
2022/04/09 06:20:17;;;;;;;11.98;2.30;;;4.90;99.90;;;;;;4990978;28;20046;-67
2022/04/09 06:22:43;;;;;;;8.52;2.60;;;5.00;99.90;;;;;;4990663;28;20137;-67
2022/04/09 06:25:09;;;;;;;8.93;2.63;;;4.90;99.90;;;;;;4986479;28;20065;-67
2022/04/09 06:27:41;;;;;;;15.57;3.60;;;5.00;99.90;;;;;;4987404;28;20058;-67
2022/04/09 06:30:08;;;;;;;12.30;3.50;;;5.10;99.90;;;;;;4981413;28;20061;-68
2022/04/09 06:32:33;;;;;;;15.55;4.32;;;5.10;99.90;;;;;;5000386;28;20034;-67
2022/04/09 06:34:59;;;;;;;13.02;4.30;;;5.20;99.90;;;;;;5007624;28;20463;-68
2022/04/09 06:37:24;;;;;;;13.45;3.65;;;5.30;99.90;;;;;;5013246;28;20138;-67
2022/04/09 06:39:50;;;;;;;13.40;3.13;;;5.50;99.90;;;;;;5013114;28;20034;-68
2022/04/09 06:42:16;;;;;;;13.40;3.13;;;7.40;99.90;;;;;;5010847;28;20072;-68
2022/04/09 06:44:41;;;;;;;11.75;2.60;;;5.80;99.90;;;;;;5002499;28;20080;-67
2022/04/09 06:47:08;;;;;;;14.95;3.13;;;6.00;99.90;;;;;;5001363;28;20176;-67
2022/04/09 06:49:36;;;;;;;15.60;3.00;;;5.90;99.90;;;;;;5006291;28;20126;-68
2022/04/09 06:52:02;;;;;;;14.27;2.75;;;5.90;99.90;;;;;;5005994;28;20035;-68
2022/04/09 06:54:28;;;;;;;10.15;2.67;;;5.90;99.90;;;;;;4992108;28;20046;-67
2022/04/09 06:56:53;;;;;;;10.32;2.38;;;6.00;99.90;;;;;;4975709;28;20467;-67
2022/04/09 06:59:19;;;;;;;13.75;3.00;;;6.40;99.90;;;;;;5009865;28;20042;-68
2022/04/09 07:01:44;;;;;;;10.98;2.67;;;6.00;99.90;;;;;;5011076;28;20077;-66
2022/04/09 07:04:10;;;;;;;10.90;2.20;;;6.80;99.90;;;;;;5009982;28;20052;-67
2022/04/09 07:06:36;;;;;;;16.35;2.72;;;6.70;99.90;;;;;;4992673;28;20049;-67
2022/04/09 07:09:01;;;;;;;13.70;2.20;;;6.30;99.90;;;;;;5010656;28;20513;-67
2022/04/09 07:11:27;;;;;;;11.93;2.42;;;6.50;99.90;;;;;;5010598;28;20074;-67
2022/04/09 07:13:52;;;;;;;13.23;3.00;;;6.70;99.90;;;;;;5008658;28;20478;-67
2022/04/09 07:16:18;;;;;;;11.85;2.30;;;6.90;99.90;;;;;;5010552;28;20049;-67
2022/04/09 07:18:44;;;;;;;16.25;2.63;;;7.70;99.90;;;;;;5010408;28;20038;-67
2022/04/09 07:21:09;;;;;;;10.75;2.22;;;7.00;99.90;;;;;;5002418;28;20084;-67
2022/04/09 07:23:35;;;;;;;11.75;2.60;;;7.40;99.90;;;;;;5000763;28;20265;-67
2022/04/09 07:26:00;;;;;;;9.65;3.15;;;7.50;99.90;;;;;;4997441;28;20387;-67
2022/04/09 07:28:26;;;;;;;8.30;1.73;;;7.70;99.90;;;;;;5000206;28;20515;-67
2022/04/09 07:30:52;;;;;;;9.77;2.33;;;8.00;99.90;;;;;;4999323;28;20036;-66
2022/04/09 07:33:17;;;;;;;11.95;2.00;;;8.20;99.90;;;;;;5002105;28;20096;-66
2022/04/09 07:35:43;;;;;;;7.45;2.03;;;8.30;99.90;;;;;;4985855;28;20394;-67
2022/04/09 07:38:08;;;;;;;12.10;3.35;;;8.30;99.90;;;;;;5003907;28;20061;-66
2022/04/09 07:40:36;;;;;;;6.90;2.17;;;8.40;99.90;;;;;;4999953;28;20117;-66
2022/04/09 07:43:02;;;;;;;13.18;2.10;;;8.40;99.90;;;;;;4998596;28;20073;-66
2022/04/09 07:45:28;;;;;;;10.23;2.17;;;8.40;99.90;;;;;;5003273;28;20454;-67
2022/04/09 07:47:56;;;;;;;9.93;2.30;;;8.30;99.90;;;;;;5007894;28;20090;-67
2022/04/09 07:50:22;;;;;;;12.50;2.50;;;8.50;99.90;;;;;;5011907;28;20046;-67
2022/04/09 07:52:47;;;;;;;6.90;2.00;;;8.70;99.90;;;;;;5009715;28;20112;-67
2022/04/09 07:55:16;;;;;;;9.25;2.05;;;8.80;99.90;;;;;;5007404;28;20050;-67
2022/04/09 07:57:42;;;;;;;10.60;2.38;;;8.90;99.90;;;;;;5008640;28;20409;-67
2022/04/09 08:00:09;;;;;;;8.40;2.22;;;8.80;99.90;;;;;;5008933;28;20048;-66
2022/04/09 08:02:34;;;;;;;10.68;2.58;;;8.70;99.90;;;;;;5009116;28;20343;-66
2022/04/09 08:05:01;;;;;;;8.52;2.33;;;8.80;99.90;;;;;;5008649;28;20026;-67
2022/04/09 08:07:27;;;;;;;8.57;2.30;;;8.80;99.90;;;;;;5009845;28;20041;-67
2022/04/09 08:09:52;;;;;;;16.88;2.75;;;8.90;99.90;;;;;;4987029;28;20510;-68
2022/04/09 08:12:18;;;;;;;11.73;2.40;;;9.00;99.90;;;;;;4997450;28;20111;-68
2022/04/09 08:14:44;;;;;;;13.65;2.63;;;9.20;99.90;;;;;;5008151;28;20096;-67
2022/04/09 08:17:11;;;;;;;13.80;2.72;;;9.50;99.90;;;;;;4999064;28;20046;-67
2022/04/09 08:19:37;;;;;;;12.23;2.65;;;9.40;99.90;;;;;;4984934;28;20132;-67
2022/04/09 08:22:03;;;;;;;11.93;2.75;;;9.30;99.90;;;;;;4990960;28;20431;-66
2022/04/09 08:24:29;;;;;;;9.63;2.45;;;9.30;99.90;;;;;;5000025;28;20386;-66
2022/04/09 08:26:55;;;;;;;14.07;2.65;;;9.50;99.90;;;;;;5008371;28;20034;-65
2022/04/09 08:29:21;;;;;;;10.52;2.63;;;9.50;99.90;;;;;;5007193;28;20065;-63
2022/04/09 08:31:47;;;;;;;10.20;2.30;;;9.60;99.90;;;;;;5008146;28;20345;-66
2022/04/09 08:34:17;;;;;;;8.40;2.00;;;9.70;99.90;;;;;;5006489;28;20392;-66
2022/04/09 08:36:43;;;;;;;11.65;2.17;;;9.90;99.90;;;;;;5002345;28;20083;-64
2022/04/09 08:39:09;;;;;;;12.10;2.50;;;9.90;99.90;;;;;;4971263;28;20085;-66
2022/04/09 08:41:40;;;;;;;10.55;2.47;;;10.00;99.90;;;;;;4989277;28;20050;-66
2022/04/09 08:44:07;;;;;;;15.88;2.80;;;10.10;99.90;;;;;;4987209;28;20046;-67
2022/04/09 08:46:34;;;;;;;10.50;1.75;;;10.20;99.90;;;;;;4971303;28;20042;-65
2022/04/09 08:49:04;;;;;;;12.88;3.22;;;10.30;99.90;;;;;;4998360;28;20045;-66
2022/04/09 08:51:30;;;;;;;13.82;2.42;;;10.40;99.90;;;;;;4990658;28;20045;-67
2022/04/09 08:54:04;;;;;;;15.68;2.50;;;11.00;99.90;;;;;;4993100;28;20431;-66
2022/04/09 08:56:31;;;;;;;14.20;2.28;;;10.30;99.90;;;;;;5009750;28;20056;-66
2022/04/09 08:58:58;;;;;;;6.25;1.70;;;10.20;99.90;;;;;;5002739;28;20442;-67
2022/04/09 09:01:24;;;;;;;4.38;1.40;;;9.90;99.90;;;;;;5009178;28;20042;-66
2022/04/09 09:03:50;;;;;;;3.97;1.50;;;9.30;99.90;;;;;;5010294;28;20085;-67
2022/04/09 09:06:27;;;;;;;3.08;1.48;;;8.70;99.90;;;;;;5008719;28;20364;-66
2022/04/09 09:08:53;;;;;;;5.25;1.48;;;8.20;99.90;;;;;;4990327;28;20148;-66
2022/04/09 09:11:19;;;;;;;4.63;1.67;;;8.00;99.90;;;;;;4990264;28;20221;-68
2022/04/09 09:13:50;;;;;;;6.80;1.40;;;8.00;99.90;;;;;;5007018;28;20092;-67
2022/04/09 09:16:30;;;;;;;5.07;1.77;;;8.50;99.90;;;;;;5008573;28;20049;-66
2022/04/09 09:18:57;;;;;;;4.10;1.50;;;11.00;99.90;;;;;;5009577;28;20052;-67
2022/04/09 09:21:26;;;;;;;5.35;1.60;;;13.90;99.90;;;;;;5011252;28;20394;-66
2022/04/09 09:24:16;;;;;;;5.22;1.75;;;16.50;99.90;;;;;;5002764;28;20055;-67
2022/04/09 09:26:44;;;;;;;2.75;1.45;;;18.70;99.60;;;;;;4992809;28;20050;-67
2022/04/09 09:29:22;;;;;;;3.08;1.40;;;21.00;91.80;;;;;;4989434;28;20053;-67
2022/04/09 09:31:49;;;;;;;4.28;1.50;;;22.70;90.20;;;;;;5007673;28;20088;-67
2022/04/09 09:34:17;;;;;;;6.28;1.55;;;24.20;83.30;;;;;;5008071;28;20120;-67
2022/04/09 09:36:43;;;;;;;5.00;1.52;;;25.60;79.80;;;;;;5008521;28;20144;-67
2022/04/09 09:39:14;;;;;;;4.60;1.65;;;26.70;71.90;;;;;;4988314;28;20516;-67
2022/04/09 09:41:53;;;;;;;7.75;1.60;;;27.00;62.70;;;;;;4986138;28;20551;-67
2022/04/09 09:44:26;;;;;;;10.30;1.98;;;25.10;58.60;;;;;;4986318;28;20617;-66
2022/04/09 09:46:53;;;;;;;6.35;1.60;;;22.70;60.30;;;;;;4985805;28;20457;-66
2022/04/09 09:49:23;;;;;;;7.97;2.10;;;20.20;62.90;;;;;;5004803;28;20379;-66
2022/04/09 09:52:07;;;;;;;6.70;1.88;;;17.80;71.40;;;;;;4985787;28;20063;-67
2022/04/09 09:54:32;;;;;;;5.05;1.40;;;15.30;93.00;;;;;;5003576;28;20375;-65
2022/04/09 09:56:59;;;;;;;4.30;1.50;;;13.60;99.90;;;;;;5008898;28;20060;-65
2022/04/09 09:59:27;;;;;;;4.50;1.50;;;12.30;99.90;;;;;;5010486;28;20057;-65
2022/04/09 10:01:54;;;;;;;3.47;1.20;;;12.30;99.90;;;;;;5005964;28;20382;-67
2022/04/09 10:04:20;;;;;;;2.67;1.38;;;12.40;99.90;;;;;;4990087;28;20081;-66
2022/04/09 10:06:46;;;;;;;2.75;1.10;;;13.70;99.90;;;;;;5007206;28;20046;-66
2022/04/09 10:09:14;;;;;;;1.65;0.95;;;14.50;99.90;;;;;;5007249;28;20042;-67
2022/04/09 10:11:49;;;;;;;3.17;0.95;;;15.30;99.90;;;;;;5007283;28;20479;-70
2022/04/09 10:14:20;;;;;;;0.95;0.80;;;15.50;98.30;;;;;;5009591;28;20049;-70
2022/04/09 10:16:48;;;;;;;1.58;1.00;;;15.90;98.40;;;;;;4992887;28;20041;-72
2022/04/09 10:19:16;;;;;;;2.53;1.20;;;17.20;97.20;;;;;;5012075;28;20038;-70
2022/04/09 10:21:46;;;;;;;2.30;1.10;;;19.00;93.20;;;;;;4987567;28;20042;-70
2022/04/09 10:24:18;;;;;;;2.35;1.00;;;21.20;86.90;;;;;;4999650;28;20501;-70
2022/04/09 10:26:45;;;;;;;3.28;1.40;;;24.10;76.30;;;;;;4987556;28;20039;-71
2022/04/09 10:29:10;;;;;;;4.15;1.45;;;25.00;70.90;;;;;;4986403;28;20042;-71
2022/04/09 10:31:48;;;;;;;8.70;1.90;;;26.10;61.80;;;;;;4975156;28;20048;-70
2022/04/09 10:34:16;;;;;;;5.93;2.00;;;26.50;58.40;;;;;;4992219;28;20043;-71
2022/04/09 10:36:44;;;;;;;6.30;1.80;;;27.10;58.70;;;;;;4990106;28;20141;-71
2022/04/09 10:39:29;;;;;;;5.03;1.50;;;26.80;56.90;;;;;;4991945;28;20439;-69
2022/04/09 10:41:55;;;;;;;4.38;1.52;;;27.30;53.50;;;;;;4969151;28;20427;-69
2022/04/09 10:44:43;;;;;;;3.88;1.50;;;25.60;53.60;;;;;;4952295;28;20051;-69
2022/04/09 10:47:14;;;;;;;3.13;1.25;;;24.70;55.30;;;;;;4981356;28;20410;-69
2022/04/09 10:49:40;;;;;;;2.25;1.13;;;24.50;54.60;;;;;;4970743;28;20086;-70
2022/04/09 10:52:14;;;;;;;4.05;1.33;;;24.10;51.80;;;;;;4983186;28;20388;-70
2022/04/09 10:55:09;;;;;;;4.20;1.42;;;24.10;53.80;;;;;;4980760;28;20408;-71
2022/04/09 10:57:43;;;;;;;3.65;1.48;;;25.50;52.70;;;;;;4973809;28;20057;-71
2022/04/09 11:00:29;;;;;;;4.70;1.45;;;27.80;52.10;;;;;;4962786;28;20410;-71
2022/04/09 11:03:29;;;;;;;6.35;1.63;;;29.40;50.00;;;;;;4980058;28;20380;-70
2022/04/09 11:06:34;;;;;;;4.00;1.30;;;30.90;47.80;;;;;;4958162;28;20519;-70
2022/04/09 11:09:02;;;;;;;6.82;1.70;;;31.50;47.10;;;;;;4982224;28;20050;-71
2022/04/09 11:11:28;;;;;;;5.72;1.90;;;30.20;45.30;;;;;;4982773;28;20134;-71
2022/04/09 11:13:54;;;;;;;5.65;1.90;;;29.60;46.50;;;;;;4979854;28;20443;-70
2022/04/09 11:16:20;;;;;;;7.28;1.70;;;30.30;46.10;;;;;;4965330;28;20038;-72
2022/04/09 11:18:47;;;;;;;5.18;1.60;;;30.00;45.00;;;;;;4979279;28;20043;-71
2022/04/09 11:21:13;;;;;;;7.15;1.80;;;28.20;45.20;;;;;;4978205;28;20427;-71
2022/04/09 11:23:39;;;;;;;6.63;1.92;;;26.20;46.10;;;;;;4985225;28;20430;-70
2022/04/09 11:26:04;;;;;;;7.68;1.80;;;25.60;48.00;;;;;;4981377;28;20061;-70
2022/04/09 11:28:41;;;;;;;5.78;1.92;;;24.00;47.70;;;;;;4997519;28;20048;-70
2022/04/09 11:31:07;;;;;;;6.95;1.70;;;21.80;50.30;;;;;;4999725;28;20050;-72
2022/04/09 11:33:32;;;;;;;6.32;1.90;;;22.60;51.90;;;;;;4997813;28;20499;-71
2022/04/09 11:36:02;;;;;;;7.78;1.70;;;25.10;49.40;;;;;;4998488;28;20045;-70
2022/04/09 11:38:28;;;;;;;6.70;1.90;;;26.40;46.80;;;;;;4998153;28;20046;-69
2022/04/09 11:40:56;;;;;;;5.95;1.80;;;24.90;47.00;;;;;;4976580;28;20422;-70
2022/04/09 11:43:22;;;;;;;8.13;2.10;;;23.20;48.40;;;;;;4976173;28;20052;-70
2022/04/09 11:45:49;;;;;;;9.32;2.50;;;22.30;50.50;;;;;;5009062;28;20984;-71
2022/04/09 11:48:17;;;;;;;6.10;1.92;;;22.70;51.40;;;;;;5005488;28;20074;-71
2022/04/09 11:50:43;;;;;;;5.88;1.92;;;23.70;51.70;;;;;;5004345;28;20037;-71
2022/04/09 11:53:12;;;;;;;6.35;1.80;;;24.30;49.50;;;;;;4991188;28;20050;-70
2022/04/09 11:55:38;;;;;;;5.30;1.65;;;23.10;49.10;;;;;;4990781;28;20081;-70
2022/04/09 11:58:06;;;;;;;6.35;1.90;;;21.30;50.70;;;;;;4976340;28;20062;-70
2022/04/09 12:00:36;;;;;;;7.82;1.90;;;19.60;52.80;;;;;;4990321;28;20503;-70
2022/04/09 12:03:03;;;;;;;6.88;1.88;;;18.70;55.90;;;;;;4974978;28;20096;-70
2022/04/09 12:05:46;;;;;;;6.95;1.80;;;17.30;58.40;;;;;;5008895;28;20320;-71
2022/04/09 12:08:13;;;;;;;9.07;2.03;;;16.80;60.30;;;;;;4978270;28;20060;-71
2022/04/09 12:10:54;;;;;;;5.53;1.80;;;17.30;63.30;;;;;;4993564;28;20061;-71
2022/04/09 12:13:30;;;;;;;7.43;1.90;;;18.60;62.10;;;;;;4991297;28;20054;-71
2022/04/09 12:16:14;;;;;;;5.93;1.75;;;19.70;58.10;;;;;;5008697;28;20121;-70
2022/04/09 12:18:41;;;;;;;10.38;1.77;;;18.80;57.70;;;;;;4991539;28;20131;-70
2022/04/09 12:21:27;;;;;;;6.10;1.77;;;17.40;59.00;;;;;;5004877;28;20047;-70
2022/04/09 12:24:01;;;;;;;5.70;2.00;;;16.70;62.20;;;;;;4997652;28;20436;-69
2022/04/09 12:26:27;;;;;;;4.65;1.40;;;17.00;63.20;;;;;;4998189;28;20085;-67
2022/04/09 12:29:12;;;;;;;8.18;1.90;;;16.60;63.00;;;;;;4979236;28;20061;-69
2022/04/09 12:31:42;;;;;;;4.35;1.58;;;16.00;67.70;;;;;;4996178;28;20046;-69
2022/04/09 12:34:08;;;;;;;8.85;1.90;;;16.10;73.00;;;;;;4981497;28;20034;-69
2022/04/09 12:36:36;;;;;;;5.68;1.67;;;15.80;75.40;;;;;;4991259;28;20073;-69
2022/04/09 12:39:24;;;;;;;5.13;1.63;;;15.80;78.00;;;;;;4984372;28;20105;-68
2022/04/09 12:41:50;;;;;;;6.78;1.88;;;17.00;77.80;;;;;;4996176;28;20041;-68
2022/04/09 12:44:32;;;;;;;5.90;1.60;;;17.50;76.10;;;;;;4990849;28;20490;-69
2022/04/09 12:46:59;;;;;;;5.93;1.70;;;18.10;77.80;;;;;;4998823;28;20089;-69
2022/04/09 12:49:30;;;;;;;5.60;1.60;;;16.80;82.80;;;;;;4978192;28;20038;-70
2022/04/09 12:51:57;;;;;;;4.40;1.60;;;16.70;86.20;;;;;;4963055;28;20398;-70
2022/04/09 12:54:23;;;;;;;9.82;2.10;;;16.20;88.70;;;;;;4996281;28;20063;-70
2022/04/09 12:56:49;;;;;;;7.38;1.77;;;15.80;89.70;;;;;;4998721;28;20054;-70